createdAt,value
2023-02-28T00:00:00.542Z,6.53
2023-02-28T00:10:41.494Z,6.55
2023-02-28T00:21:02.717Z,6.88
2023-02-28T00:31:23.881Z,5.85
2023-02-28T00:41:45.034Z,8.45
2023-02-28T00:52:06.661Z,5.95
2023-02-28T01:02:27.629Z,6.93
2023-02-28T01:12:48.628Z,5.75
2023-02-28T01:23:10.803Z,8.90
2023-02-28T01:33:32.974Z,7.15
2023-02-28T01:43:58.840Z,7.82
2023-02-28T01:54:29.293Z,6.35
2023-02-28T02:05:02.805Z,8.30
2023-02-28T02:15:48.298Z,7.40
2023-02-28T02:26:18.972Z,6.53
2023-02-28T02:36:41.619Z,6.80
2023-02-28T02:47:09.891Z,7.20
2023-02-28T02:57:36.897Z,6.68
2023-02-28T03:07:58.180Z,8.65
2023-02-28T03:19:02.373Z,6.65
2023-02-28T03:29:31.131Z,7.97
2023-02-28T03:40:00.422Z,6.93
2023-02-28T03:50:37.374Z,11.55
2023-02-28T04:01:16.956Z,7.93
2023-02-28T04:11:40.468Z,7.25
2023-02-28T04:22:01.811Z,6.70
2023-02-28T04:32:23.299Z,5.70
2023-02-28T04:42:44.652Z,6.70
2023-02-28T04:53:05.797Z,8.18
2023-02-28T05:03:28.077Z,9.65
2023-02-28T05:13:50.043Z,8.38
2023-02-28T05:24:13.271Z,7.35
2023-02-28T05:34:34.602Z,8.02
2023-02-28T05:44:55.848Z,9.05
2023-02-28T05:55:17.063Z,6.35
2023-02-28T06:05:39.699Z,7.68
2023-02-28T06:16:04.016Z,6.55
2023-02-28T06:26:25.343Z,7.40
2023-02-28T06:36:46.412Z,8.80
2023-02-28T06:47:07.899Z,9.68
2023-02-28T06:57:32.078Z,8.20
2023-02-28T07:07:54.085Z,9.50
2023-02-28T07:18:15.047Z,8.05
2023-02-28T07:28:35.974Z,7.18
2023-02-28T07:38:56.909Z,7.47
2023-02-28T07:49:18.369Z,7.25
2023-02-28T07:59:40.976Z,8.88
2023-02-28T08:10:02.501Z,7.63
2023-02-28T08:20:24.916Z,8.65
2023-02-28T08:30:46.381Z,9.95
2023-02-28T08:41:11.145Z,9.60
2023-02-28T08:51:32.688Z,12.73
2023-02-28T09:01:54.122Z,9.40
2023-02-28T09:12:15.074Z,10.35
2023-02-28T09:22:36.624Z,9.15
2023-02-28T09:32:58.035Z,7.95
2023-02-28T09:43:22.860Z,9.27
2023-02-28T09:53:47.895Z,11.90
2023-02-28T10:04:36.622Z,8.77
2023-02-28T10:15:00.005Z,8.13
2023-02-28T10:25:27.981Z,10.40
2023-02-28T10:35:50.025Z,8.20
2023-02-28T10:46:11.315Z,7.47
2023-02-28T10:56:34.301Z,10.20
2023-02-28T11:07:22.165Z,8.45
2023-02-28T11:17:46.024Z,9.43
2023-02-28T11:28:27.783Z,9.57
2023-02-28T11:38:50.793Z,8.85
2023-02-28T11:49:32.619Z,9.40
2023-02-28T12:00:06.113Z,9.18
2023-02-28T12:10:58.312Z,9.57
2023-02-28T12:21:52.699Z,9.43
2023-02-28T12:32:28.435Z,10.40
2023-02-28T12:43:04.928Z,8.18
2023-02-28T12:53:35.330Z,8.63
2023-02-28T13:04:18.306Z,9.52
2023-02-28T13:14:39.984Z,10.52
2023-02-28T13:25:01.377Z,9.60
2023-02-28T13:35:46.196Z,8.88
2023-02-28T13:46:13.420Z,9.07
2023-02-28T14:07:03.752Z,9.68
2023-02-28T14:17:26.367Z,9.95
2023-02-28T14:28:19.457Z,10.40
2023-02-28T14:38:47.215Z,10.13
2023-02-28T14:49:34.278Z,10.65
2023-02-28T15:00:05.632Z,11.50
2023-02-28T15:10:29.031Z,10.45
2023-02-28T15:20:51.873Z,10.60
2023-02-28T15:31:26.982Z,10.85
2023-02-28T15:41:48.149Z,8.05
2023-02-28T15:52:14.356Z,10.10
2023-02-28T16:02:38.302Z,10.43
2023-02-28T16:12:59.822Z,9.05
2023-02-28T16:23:21.028Z,8.32
2023-02-28T16:33:42.203Z,9.40
2023-02-28T16:44:03.907Z,8.45
2023-02-28T16:54:24.961Z,11.13
2023-02-28T17:04:47.219Z,8.48
2023-02-28T17:15:10.224Z,10.85
2023-02-28T17:25:31.621Z,10.07
2023-02-28T17:35:52.739Z,10.32
2023-02-28T17:46:21.580Z,11.73
2023-02-28T17:56:45.778Z,11.18
2023-02-28T18:07:09.355Z,10.23
2023-02-28T18:17:30.532Z,9.90
2023-02-28T18:27:58.391Z,9.27
2023-02-28T18:38:21.308Z,10.93
2023-02-28T18:48:43.080Z,10.80
2023-02-28T18:59:04.526Z,10.90
2023-02-28T19:09:25.576Z,11.18
2023-02-28T19:19:46.795Z,10.82
2023-02-28T19:30:08.900Z,13.10
2023-02-28T19:40:29.988Z,12.35
2023-02-28T19:50:51.846Z,11.75
2023-02-28T20:01:18.402Z,12.07
2023-02-28T20:11:39.992Z,11.57
2023-02-28T20:22:02.904Z,13.45
2023-02-28T20:32:24.139Z,12.70
2023-02-28T20:42:45.285Z,13.23
2023-02-28T20:53:07.062Z,14.45
2023-02-28T21:03:29.413Z,13.50
2023-02-28T21:13:54.569Z,14.25
2023-02-28T21:24:18.392Z,13.38
2023-02-28T21:34:39.521Z,17.27
2023-02-28T21:45:01.940Z,14.27
2023-02-28T21:55:22.863Z,15.82
2023-02-28T22:05:43.818Z,17.23
2023-02-28T22:16:06.750Z,15.55
2023-02-28T22:26:28.955Z,16.00
2023-02-28T22:36:50.776Z,16.38
2023-02-28T22:47:11.824Z,20.60
2023-02-28T22:57:33.085Z,16.50
2023-02-28T23:07:54.202Z,18.23
2023-02-28T23:18:15.939Z,18.38
2023-02-28T23:28:37.096Z,19.38
2023-02-28T23:38:58.236Z,20.00
2023-02-28T23:49:20.590Z,17.52
2023-02-28T23:59:41.492Z,17.77
